Time;durP1;ratioP1;P1;durP2;ratioP2;P2;SDS_P1;SDS_P2;PMS_P1;PMS_P2;Temp;Humidity;BMP_temperature;BMP_pressure;BME280_temperature;BME280_humidity;BME280_pressure;Samples;Min_cycle;Max_cycle;Signal;HPM_P1;HPM_P2
2021/11/19 00:02:14;;;;;;;11.65;6.05;;;;;;;4.73;60.69;94696.78;5006090;28;20033;-75
2021/11/19 00:04:41;;;;;;;12.45;6.45;;;;;;;4.67;60.63;94697.78;5009369;28;20048;-75
2021/11/19 00:07:07;;;;;;;14.63;7.60;;;;;;;4.61;60.68;94719.88;5002090;28;20857;-73
2021/11/19 00:09:33;;;;;;;11.98;6.05;;;;;;;4.35;61.25;94708.38;5000296;28;20038;-72
2021/11/19 00:11:59;;;;;;;11.82;5.22;;;;;;;4.09;61.79;94694.19;5003187;28;20332;-74
2021/11/19 00:14:26;;;;;;;9.73;6.32;;;;;;;4.15;62.19;94690.56;5009033;28;20096;-73
2021/11/19 00:16:57;;;;;;;12.20;5.68;;;;;;;4.43;61.32;94720.28;5008925;28;20041;-74
2021/11/19 00:19:25;;;;;;;11.48;6.00;;;;;;;4.17;61.42;94685.81;5008597;28;20034;-74
2021/11/19 00:21:52;;;;;;;13.70;6.57;;;;;;;4.37;61.40;94711.53;5023883;28;20030;-73
2021/11/19 00:24:19;;;;;;;14.77;6.47;;;;;;;4.16;61.40;94692.13;5007129;28;20045;-74
2021/11/19 00:26:44;;;;;;;16.02;7.60;;;;;;;4.10;61.49;94690.50;5010965;28;20021;-72
2021/11/19 00:29:12;;;;;;;11.20;6.65;;;;;;;4.30;61.60;94728.63;5025482;28;20656;-75
2021/11/19 00:31:39;;;;;;;17.40;7.18;;;;;;;4.33;61.37;94720.19;5001779;28;20052;-74
2021/11/19 00:34:05;;;;;;;12.43;6.65;;;;;;;4.40;61.20;94718.16;5007458;28;20046;-73
2021/11/19 00:36:32;;;;;;;14.95;6.97;;;;;;;4.41;60.52;94698.66;5013282;28;20330;-74
2021/11/19 00:39:05;;;;;;;11.32;6.45;;;;;;;4.64;60.24;94717.56;5005438;28;20103;-74
2021/11/19 00:41:31;;;;;;;11.60;5.78;;;;;;;4.68;59.29;94710.72;5007844;28;20030;-74
2021/11/19 00:43:56;;;;;;;10.10;5.75;;;;;;;4.83;58.51;94712.66;5004769;28;20040;-75
2021/11/19 00:46:23;;;;;;;30.35;10.18;;;;;;;4.91;57.63;94706.88;5005493;28;20129;-74
2021/11/19 00:48:49;;;;;;;12.90;6.40;;;;;;;4.77;57.48;94724.22;4999532;28;20034;-74
2021/11/19 00:51:18;;;;;;;7.63;5.05;;;;;;;4.67;57.93;94721.50;5006227;28;20388;-74
2021/11/19 00:53:46;;;;;;;12.77;5.70;;;;;;;4.60;58.23;94720.94;5000927;28;20498;-74
2021/11/19 00:56:15;;;;;;;10.82;5.35;;;;;;;4.51;58.81;94719.81;5007352;28;20065;-73
2021/11/19 00:58:41;;;;;;;10.13;5.75;;;;;;;4.47;58.93;94719.53;5007975;28;20151;-74
2021/11/19 01:01:19;;;;;;;11.13;5.22;;;;;;;4.22;59.33;94677.94;5003164;28;20045;-74
2021/11/19 01:03:44;;;;;;;17.08;6.03;;;;;;;4.67;58.63;94716.22;5004230;28;20381;-72
2021/11/19 01:06:10;;;;;;;11.23;4.95;;;;;;;4.86;58.27;94709.50;5004626;28;20030;-73
2021/11/19 01:08:35;;;;;;;8.40;5.00;;;;;;;5.07;57.33;94703.28;5011309;28;20599;-73
2021/11/19 01:11:04;;;;;;;8.40;5.18;;;;;;;5.12;57.10;94721.78;5002786;28;20034;-74
2021/11/19 01:13:33;;;;;;;8.60;5.28;;;;;;;5.21;57.00;94711.53;5002354;28;20064;-74
2021/11/19 01:16:03;;;;;;;10.52;4.57;;;;;;;5.01;57.15;94687.69;5001577;28;20034;-75
2021/11/19 01:18:38;;;;;;;9.70;5.47;;;;;;;4.93;57.95;94717.97;5013325;28;20045;-75
2021/11/19 01:21:13;;;;;;;9.18;4.68;;;;;;;5.02;58.04;94719.09;5008863;28;20037;-74
2021/11/19 01:23:39;;;;;;;11.10;6.05;;;;;;;5.02;57.81;94719.09;5010852;28;20613;-73
2021/11/19 01:26:12;;;;;;;9.20;5.07;;;;;;;4.96;58.32;94725.38;5014391;28;20053;-74
2021/11/19 01:28:40;;;;;;;12.25;5.13;;;;;;;4.99;58.14;94695.84;5003553;28;20296;-73
2021/11/19 01:31:12;;;;;;;7.72;4.75;;;;;;;5.06;58.19;94717.50;5011844;28;20034;-74
2021/11/19 01:33:37;;;;;;;10.55;5.63;;;;;;;5.18;57.44;94698.06;5014639;28;20034;-74
2021/11/19 01:36:04;;;;;;;8.82;4.68;;;;;;;5.40;56.97;94707.38;5015247;28;20121;-75
2021/11/19 01:38:31;;;;;;;7.50;5.35;;;;;;;5.32;56.83;94704.44;5010122;28;20018;-74
2021/11/19 01:41:00;;;;;;;9.07;5.18;;;;;;;5.21;57.21;94710.72;5004268;28;20477;-75
2021/11/19 01:43:27;;;;;;;8.57;5.03;;;;;;;5.12;57.56;94694.59;5011784;28;20030;-74
2021/11/19 01:45:56;;;;;;;12.90;6.13;;;;;;;5.24;57.73;94702.28;5007172;28;20052;-73
2021/11/19 01:48:27;;;;;;;13.13;5.43;;;;;;;5.21;57.67;94697.53;5010613;28;20045;-75
2021/11/19 01:51:04;;;;;;;11.00;5.47;;;;;;;5.35;57.58;94706.56;5008017;28;20114;-75
2021/11/19 01:53:48;;;;;;;9.82;4.80;;;;;;;5.35;57.04;94706.56;5004227;28;20072;-74
2021/11/19 01:56:39;;;;;;;9.40;5.38;;;;;;;5.27;57.58;94710.50;5011380;28;20056;-75
2021/11/19 01:59:15;;;;;;;7.47;4.95;;;;;;;5.12;57.78;94700.69;4991889;28;20034;-74
2021/11/19 02:01:47;;;;;;;8.65;4.88;;;;;;;5.06;57.97;94698.25;5011335;28;20037;-73
2021/11/19 02:04:19;;;;;;;10.13;4.65;;;;;;;4.97;57.78;94697.16;5009492;28;20042;-75
2021/11/19 02:06:56;;;;;;;8.25;4.60;;;;;;;4.84;58.42;94697.63;5007321;28;20042;-76
2021/11/19 02:09:39;;;;;;;10.93;5.10;;;;;;;4.78;58.68;94696.00;5012596;28;20158;-74
2021/11/19 02:12:04;;;;;;;8.75;5.47;;;;;;;4.95;58.64;94696.63;4998075;28;20124;-74
2021/11/19 02:14:38;;;;;;;13.13;5.97;;;;;;;5.06;58.26;94688.50;4992551;28;20124;-75
2021/11/19 02:17:07;;;;;;;8.68;4.75;;;;;;;5.23;57.39;94690.19;5017699;28;20406;-74
2021/11/19 02:19:43;;;;;;;8.07;4.75;;;;;;;5.31;56.99;94689.66;5015996;28;20072;-73
2021/11/19 02:22:19;;;;;;;7.93;4.30;;;;;;;5.36;57.00;94690.47;5010069;28;20033;-75
2021/11/19 02:25:07;;;;;;;6.53;4.32;;;;;;;5.30;57.16;94693.34;5007033;28;20049;-73
2021/11/19 02:27:43;;;;;;;8.50;5.07;;;;;;;5.33;57.22;94683.09;5011734;28;20034;-74
2021/11/19 02:30:27;;;;;;;8.88;4.30;;;;;;;5.43;56.31;94667.28;5009036;28;20033;-75
2021/11/19 02:33:03;;;;;;;8.98;4.95;;;;;;;5.45;56.23;94682.84;5009003;28;20395;-74
2021/11/19 02:35:55;;;;;;;9.45;4.13;;;;;;;5.30;56.65;94683.59;5010837;28;20026;-73
2021/11/19 02:38:28;;;;;;;9.35;5.07;;;;;;;5.44;56.04;94678.63;4992494;28;20042;-73
2021/11/19 02:40:53;;;;;;;5.50;4.13;;;;;;;5.44;55.95;94660.16;5006184;28;20045;-73
2021/11/19 02:43:28;;;;;;;9.77;5.80;;;;;;;5.61;55.21;94679.22;5013687;28;20468;-74
2021/11/19 02:45:54;;;;;;;8.73;4.20;;;;;;;5.31;55.09;94656.16;5013087;28;20073;-73
2021/11/19 02:48:24;;;;;;;6.47;5.00;;;;;;;5.25;55.22;94682.78;5008903;28;20042;-74
2021/11/19 02:50:51;;;;;;;7.60;4.35;;;;;;;5.17;54.94;94684.09;5006838;28;20502;-74
2021/11/19 02:53:17;;;;;;;8.73;5.22;;;;;;;4.88;54.98;94664.44;5013574;28;20038;-75
2021/11/19 02:55:45;;;;;;;9.88;5.13;;;;;;;4.89;55.25;94673.94;4999390;28;20034;-72
2021/11/19 02:58:16;;;;;;;11.05;6.57;;;;;;;4.80;55.68;94670.97;5010954;28;20539;-75
2021/11/19 03:00:51;;;;;;;8.32;5.28;;;;;;;4.64;56.04;94690.41;5013162;28;20066;-75
2021/11/19 03:03:17;;;;;;;12.70;6.97;;;;;;;4.48;56.36;94675.53;5012485;28;20060;-74
2021/11/19 03:05:42;;;;;;;13.20;5.53;;;;;;;4.70;56.26;94686.72;5013575;28;20021;-74
2021/11/19 03:08:08;;;;;;;10.27;6.68;;;;;;;4.75;55.76;94692.03;5005601;28;20343;-74
2021/11/19 03:10:45;;;;;;;12.50;5.82;;;;;;;4.68;55.85;94686.22;5010017;28;20204;-74
2021/11/19 03:13:13;;;;;;;13.40;6.55;;;;;;;4.58;55.65;94668.50;5011915;28;20675;-75
2021/11/19 03:15:45;;;;;;;13.20;7.05;;;;;;;4.75;55.73;94681.50;5011093;28;20143;-74
2021/11/19 03:18:16;;;;;;;9.68;6.07;;;;;;;4.83;55.67;94677.59;5017996;28;20095;-75
2021/11/19 03:20:45;;;;;;;10.85;6.75;;;;;;;4.82;55.29;94671.53;5017655;28;20328;-73
2021/11/19 03:23:10;;;;;;;11.02;6.28;;;;;;;4.90;55.40;94657.84;5012773;28;20023;-75
2021/11/19 03:25:38;;;;;;;11.68;6.97;;;;;;;4.99;55.67;94674.75;5010852;28;20423;-74
2021/11/19 03:28:06;;;;;;;10.80;6.35;;;;;;;4.99;55.57;94666.84;5010409;28;21080;-74
2021/11/19 03:30:34;;;;;;;10.85;6.72;;;;;;;5.13;55.54;94668.00;5006910;28;20133;-75
2021/11/19 03:33:00;;;;;;;14.25;6.43;;;;;;;5.10;55.36;94657.94;5008439;28;20128;-75
2021/11/19 03:35:27;;;;;;;12.65;6.43;;;;;;;5.18;55.34;94679.59;5011595;28;20056;-74
2021/11/19 03:37:54;;;;;;;15.05;6.82;;;;;;;5.16;55.14;94681.69;5011779;28;20891;-74
2021/11/19 03:40:24;;;;;;;12.70;6.28;;;;;;;5.04;54.54;94685.31;5012799;28;20080;-75
2021/11/19 03:42:50;;;;;;;9.85;6.57;;;;;;;4.70;54.79;94669.06;5011508;28;20073;-75
2021/11/19 03:45:20;;;;;;;9.88;6.45;;;;;;;4.88;54.60;94681.06;5010473;28;20036;-74
2021/11/19 03:47:49;;;;;;;14.57;6.55;;;;;;;4.97;54.35;94684.78;5009973;28;20492;-73
2021/11/19 03:50:20;;;;;;;12.77;6.38;;;;;;;4.89;53.88;94672.09;5015865;28;20144;-74
2021/11/19 03:52:45;;;;;;;10.30;6.25;;;;;;;4.79;53.57;94677.31;5009786;28;20054;-74
2021/11/19 03:55:16;;;;;;;10.70;6.80;;;;;;;4.76;53.56;94674.38;5006755;28;20554;-74
2021/11/19 03:57:43;;;;;;;12.00;7.07;;;;;;;4.91;53.33;94677.88;5021754;28;20080;-74
2021/11/19 04:00:14;;;;;;;13.80;5.88;;;;;;;4.89;53.13;94672.09;5014246;28;20076;-74
2021/11/19 04:02:39;;;;;;;9.70;6.03;;;;;;;4.89;53.42;94669.47;5015739;28;20029;-74
2021/11/19 04:05:06;;;;;;;12.35;6.05;;;;;;;4.80;53.45;94654.38;5013652;28;20533;-74
2021/11/19 04:07:32;;;;;;;13.73;7.00;;;;;;;4.56;53.89;94667.16;5031834;28;20041;-74
2021/11/19 04:09:57;;;;;;;11.98;6.65;;;;;;;4.47;54.35;94674.75;5016330;28;20041;-74
2021/11/19 04:12:23;;;;;;;11.18;5.82;;;;;;;4.41;54.32;94638.06;5017714;28;20029;-74
2021/11/19 04:14:51;;;;;;;11.57;6.57;;;;;;;4.58;54.16;94634.25;5015897;28;20572;-73
2021/11/19 04:17:16;;;;;;;11.57;5.65;;;;;;;4.86;53.71;94659.41;5018384;28;20172;-75
2021/11/19 04:19:42;;;;;;;10.98;6.32;;;;;;;5.06;53.20;94667.41;5016239;28;20068;-75
2021/11/19 04:22:12;;;;;;;13.27;6.60;;;;;;;5.12;52.97;94668.25;5016159;28;20041;-74
2021/11/19 04:24:42;;;;;;;12.30;6.90;;;;;;;5.10;53.36;94657.13;5015836;28;20088;-74
2021/11/19 04:27:09;;;;;;;13.18;6.95;;;;;;;5.06;52.72;94664.78;5013966;28;20037;-75
2021/11/19 04:29:34;;;;;;;13.27;6.43;;;;;;;5.05;53.19;94663.19;5014495;28;20037;-74
2021/11/19 04:32:01;;;;;;;8.88;6.57;;;;;;;5.24;52.51;94662.72;5017494;28;20032;-75
2021/11/19 04:34:26;;;;;;;12.18;6.90;;;;;;;5.19;52.36;94665.38;5012062;28;20076;-74
2021/11/19 04:36:52;;;;;;;12.10;6.85;;;;;;;5.06;52.76;94656.06;5016517;28;20469;-74
2021/11/19 04:39:17;;;;;;;13.50;8.10;;;;;;;5.03;52.86;94652.13;5012813;28;20125;-75
2021/11/19 04:41:43;;;;;;;12.73;6.70;;;;;;;5.30;52.09;94665.13;5012946;28;20128;-74
2021/11/19 04:44:09;;;;;;;9.32;6.50;;;;;;;5.31;51.93;94653.53;5009451;28;20026;-76
2021/11/19 04:46:34;;;;;;;11.65;7.05;;;;;;;5.02;51.91;94650.53;5010256;28;20579;-74
2021/11/19 04:49:00;;;;;;;11.80;6.53;;;;;;;5.11;51.90;94637.63;5012567;28;20606;-74
2021/11/19 04:51:29;;;;;;;11.98;5.63;;;;;;;5.46;51.21;94658.06;5011641;28;20107;-74
2021/11/19 04:53:54;;;;;;;7.90;5.50;;;;;;;5.34;51.55;94657.47;5009043;28;20038;-75
2021/11/19 04:56:21;;;;;;;13.27;6.20;;;;;;;5.31;51.42;94658.00;5015719;28;20108;-75
2021/11/19 04:58:48;;;;;;;9.30;5.80;;;;;;;4.96;51.45;94642.84;5010579;28;20030;-75
2021/11/19 05:01:21;;;;;;;9.75;6.38;;;;;;;4.72;52.43;94644.31;5011446;28;20053;-75
2021/11/19 05:03:47;;;;;;;11.80;6.25;;;;;;;4.68;52.52;94636.13;5015467;28;20509;-74
2021/11/19 05:06:14;;;;;;;11.38;5.97;;;;;;;4.77;52.48;94658.31;5010089;28;20696;-74
2021/11/19 05:08:40;;;;;;;14.27;6.78;;;;;;;4.76;52.52;94629.56;5013046;28;20025;-75
2021/11/19 05:11:08;;;;;;;9.25;5.97;;;;;;;4.92;52.37;94655.75;5012602;28;21020;-73
2021/11/19 05:13:36;;;;;;;12.77;6.97;;;;;;;5.06;52.16;94663.97;5011080;28;20045;-72
2021/11/19 05:16:04;;;;;;;14.18;6.93;;;;;;;5.10;51.74;94650.03;5009168;28;20132;-75
2021/11/19 05:18:30;;;;;;;12.05;6.93;;;;;;;5.05;51.77;94644.72;5011327;28;20033;-75
2021/11/19 05:20:57;;;;;;;7.88;5.28;;;;;;;5.04;51.20;94666.88;5015753;28;20028;-75
2021/11/19 05:23:24;;;;;;;10.52;6.10;;;;;;;4.94;51.09;94669.47;5013504;28;20385;-74
2021/11/19 05:25:51;;;;;;;13.55;6.38;;;;;;;4.93;51.01;94672.38;5014111;28;20033;-75
2021/11/19 05:28:19;;;;;;;12.25;6.65;;;;;;;4.82;50.98;94670.72;5014415;28;20033;-75
2021/11/19 05:30:45;;;;;;;10.43;5.63;;;;;;;4.87;51.26;94676.81;5013129;28;20412;-73
2021/11/19 05:33:13;;;;;;;9.95;5.82;;;;;;;5.00;50.68;94676.34;5010705;28;20498;-74
2021/11/19 05:35:39;;;;;;;13.38;6.05;;;;;;;5.07;50.51;94676.91;5010335;28;20053;-75
2021/11/19 05:38:05;;;;;;;9.13;5.60;;;;;;;5.15;50.19;94672.97;5014829;28;20342;-74
2021/11/19 05:40:31;;;;;;;11.52;6.03;;;;;;;5.11;49.80;94680.63;5008347;28;20042;-75
2021/11/19 05:42:58;;;;;;;12.43;5.47;;;;;;;4.92;49.64;94647.06;5014263;28;20038;-74
2021/11/19 05:45:26;;;;;;;15.98;7.20;;;;;;;5.09;49.71;94664.25;5014587;28;20050;-75
2021/11/19 05:47:52;;;;;;;10.70;5.32;;;;;;;4.99;48.83;94666.84;5008743;28;20037;-73
2021/11/19 05:50:20;;;;;;;8.77;5.25;;;;;;;5.04;48.95;94685.31;5005502;28;20404;-75
2021/11/19 05:52:46;;;;;;;6.85;5.18;;;;;;;4.99;48.44;94680.03;5008377;28;20044;-74
2021/11/19 05:55:17;;;;;;;11.65;5.95;;;;;;;4.83;47.79;94664.41;5018308;28;20030;-74
2021/11/19 05:57:43;;;;;;;8.05;5.10;;;;;;;4.69;47.23;94675.41;5022633;28;20968;-75
2021/11/19 06:00:23;;;;;;;7.85;4.53;;;;;;;4.57;47.24;94655.56;5012058;28;20033;-74
2021/11/19 06:02:49;;;;;;;8.13;4.80;;;;;;;4.59;46.91;94667.44;5004400;28;20025;-75
2021/11/19 06:05:15;;;;;;;7.50;4.82;;;;;;;4.67;47.07;94674.06;5009132;28;20049;-73
2021/11/19 06:07:41;;;;;;;9.63;4.38;;;;;;;4.63;46.93;94688.81;5010164;28;20033;-75
2021/11/19 06:10:09;;;;;;;8.00;4.32;;;;;;;4.52;47.04;94677.41;5007364;28;20675;-73
2021/11/19 06:13:00;;;;;;;7.15;4.72;;;;;;;4.54;46.98;94680.59;5007504;28;20828;-75
2021/11/19 06:15:29;;;;;;;7.05;4.72;;;;;;;4.64;46.51;94685.13;5008495;28;20069;-75
2021/11/19 06:18:00;;;;;;;8.50;5.25;;;;;;;4.68;46.00;94691.47;5008284;28;20120;-75
2021/11/19 06:20:47;;;;;;;9.00;4.55;;;;;;;4.62;46.18;94692.47;5008364;28;20104;-75
2021/11/19 06:23:16;;;;;;;8.30;4.78;;;;;;;4.68;46.31;94692.28;5016153;28;20053;-73
2021/11/19 06:25:43;;;;;;;9.60;4.70;;;;;;;4.55;46.13;94679.53;5004743;28;20041;-75
2021/11/19 06:28:15;;;;;;;7.43;5.03;;;;;;;4.44;46.11;94659.44;5005459;28;20049;-75
2021/11/19 06:30:41;;;;;;;7.65;4.72;;;;;;;4.56;46.21;94677.69;5011444;28;20129;-74
2021/11/19 06:33:07;;;;;;;8.00;3.92;;;;;;;4.82;46.23;94697.88;5016180;28;20132;-74
2021/11/19 06:35:32;;;;;;;6.05;4.00;;;;;;;4.86;46.13;94691.03;4998703;28;20034;-75
2021/11/19 06:37:59;;;;;;;5.40;4.03;;;;;;;4.92;46.17;94700.56;5014533;28;20167;-75
2021/11/19 06:40:28;;;;;;;11.15;4.88;;;;;;;4.85;46.47;94700.00;5005041;28;20041;-74
2021/11/19 06:42:57;;;;;;;10.63;5.18;;;;;;;4.76;46.66;94687.56;5009963;28;20037;-73
2021/11/19 06:45:24;;;;;;;9.88;5.13;;;;;;;4.83;46.59;94707.38;5008243;28;20050;-75
2021/11/19 06:47:50;;;;;;;6.25;4.30;;;;;;;4.27;47.02;94622.69;5000300;28;20021;-73
2021/11/19 06:50:19;;;;;;;9.40;5.30;;;;;;;4.86;47.16;94703.44;5024285;28;20554;-77
2021/11/19 06:52:45;;;;;;;8.52;5.15;;;;;;;4.88;47.34;94693.44;5008820;28;20506;-75
2021/11/19 06:55:11;;;;;;;9.68;4.65;;;;;;;4.87;47.43;94682.09;5009690;28;20538;-75
2021/11/19 06:57:37;;;;;;;8.20;4.97;;;;;;;4.84;47.61;94674.72;5007772;28;20132;-75
2021/11/19 07:00:09;;;;;;;8.02;4.93;;;;;;;5.00;47.60;94704.56;5006678;28;20631;-74
2021/11/19 07:02:34;;;;;;;12.00;6.13;;;;;;;4.86;47.27;94687.59;5016627;28;20029;-74
2021/11/19 07:05:00;;;;;;;10.07;4.68;;;;;;;4.90;47.20;94697.38;5003702;28;20036;-74
2021/11/19 07:07:25;;;;;;;6.65;4.13;;;;;;;4.87;47.49;94705.81;5010179;28;20053;-75
2021/11/19 07:09:51;;;;;;;12.07;6.82;;;;;;;4.92;47.46;94687.41;5006059;28;20087;-76
